Time;durP1;ratioP1;P1;durP2;ratioP2;P2;SDS_P1;SDS_P2;PMS_P1;PMS_P2;Temp;Humidity;BMP_temperature;BMP_pressure;BME280_temperature;BME280_humidity;BME280_pressure;Samples;Min_cycle;Max_cycle;Signal;HPM_P1;HPM_P2
2024/01/01 00:01:39;;;;;;;18.08;11.52;;;;;;;-142.57;100.00;57069.16;5081296;28;20035;-76
2024/01/01 00:04:06;;;;;;;17.90;11.13;;;;;;;-142.57;100.00;56953.94;5091773;28;20033;-76
2024/01/01 00:06:32;;;;;;;17.42;10.68;;;;;;;-142.57;100.00;56970.13;5075131;28;20408;-75
2024/01/01 00:08:57;;;;;;;18.38;11.35;;;;;;;-142.57;100.00;56984.28;5093732;28;20113;-74
2024/01/01 00:11:23;;;;;;;17.35;11.60;;;;;;;-142.57;100.00;56937.78;5078811;28;20028;-77
2024/01/01 00:13:48;;;;;;;20.40;13.80;;;;;;;-142.57;100.00;56958.00;5079564;28;20217;-76
2024/01/01 00:16:14;;;;;;;24.63;13.82;;;;;;;-142.57;100.00;56988.31;5068020;28;20063;-75
2024/01/01 00:18:41;;;;;;;23.08;14.38;;;;;;;-142.57;100.00;56970.13;5063551;28;20145;-76
2024/01/01 00:21:08;;;;;;;20.80;13.70;;;;;;;-142.57;100.00;56897.38;5045118;28;20036;-76
2024/01/01 00:23:34;;;;;;;19.58;12.85;;;;;;;-142.57;100.00;56921.63;5038690;28;20028;-76
2024/01/01 00:26:00;;;;;;;20.08;13.23;;;;;;;-142.57;100.00;56899.38;5073950;28;20024;-76
2024/01/01 00:28:26;;;;;;;20.63;13.82;;;;;;;-142.57;100.00;56899.38;5082458;28;20101;-74
2024/01/01 00:30:51;;;;;;;20.23;13.10;;;;;;;-142.57;100.00;56883.22;5063410;28;20036;-76
2024/01/01 00:33:17;;;;;;;19.95;12.20;;;;;;;-142.57;100.00;56860.97;5075045;28;20503;-76
2024/01/01 00:35:44;;;;;;;20.45;13.98;;;;;;;-142.57;100.00;56856.94;5068201;28;20274;-77
2024/01/01 00:38:10;;;;;;;21.38;13.05;;;;;;;-142.57;100.00;56826.63;5080529;28;20029;-76
2024/01/01 00:40:42;;;;;;;28.48;16.75;;;;;;;-142.57;100.00;56812.47;5070410;28;20132;-84
2024/01/01 00:43:09;;;;;;;22.40;14.57;;;;;;;-142.57;100.00;56780.13;5049124;28;20036;-74
2024/01/01 00:45:34;;;;;;;22.30;13.77;;;;;;;-142.57;100.00;56814.50;5075819;28;20483;-74
2024/01/01 00:48:00;;;;;;;20.23;13.98;;;;;;;-142.57;100.00;56763.97;5076729;28;20029;-75
2024/01/01 00:50:26;;;;;;;20.83;13.90;;;;;;;-142.57;100.00;56719.50;5010893;28;20036;-74
2024/01/01 00:52:51;;;;;;;25.05;15.98;;;;;;;-142.57;100.00;56747.81;5076030;28;20040;-73
2024/01/01 00:55:17;;;;;;;23.23;14.88;;;;;;;-142.57;100.00;56808.44;5066237;28;20032;-77
2024/01/01 00:57:44;;;;;;;22.92;15.43;;;;;;;-142.57;100.00;56810.44;5064085;28;21361;-75
2024/01/01 01:00:11;;;;;;;25.10;16.02;;;;;;;-142.57;100.00;56768.00;5051863;28;20068;-77
2024/01/01 01:02:37;;;;;;;22.95;15.45;;;;;;;-142.57;100.00;56739.72;5059371;28;20032;-74
2024/01/01 01:05:02;;;;;;;30.52;18.33;;;;;;;-142.57;100.00;56772.06;5060893;28;20062;-74
2024/01/01 01:07:30;;;;;;;29.77;17.95;;;;;;;-142.57;100.00;56828.66;5067775;28;20043;-83
2024/01/01 01:09:59;;;;;;;28.30;17.02;;;;;;;-142.57;100.00;56784.19;5092828;28;20039;-81
2024/01/01 01:12:24;;;;;;;27.75;18.60;;;;;;;-142.57;100.00;56830.66;5057329;28;20039;-76
2024/01/01 01:14:50;;;;;;;29.35;18.50;;;;;;;-142.57;100.00;56792.25;4996910;28;20038;-77
2024/01/01 01:17:15;;;;;;;27.15;19.63;;;;;;;-142.57;100.00;56869.06;5001511;28;20404;-76
2024/01/01 01:19:41;;;;;;;35.03;20.00;;;;;;;-142.57;100.00;56881.19;5063282;28;20036;-86
2024/01/01 01:22:06;;;;;;;31.85;20.80;;;;;;;-142.57;100.00;56905.44;5070875;28;20093;-76
2024/01/01 01:24:32;;;;;;;37.38;21.83;;;;;;;-142.57;100.00;56935.75;5084819;28;20051;-76
2024/01/01 01:26:57;;;;;;;36.25;21.80;;;;;;;-142.57;100.00;56937.78;5075624;28;20056;-77
2024/01/01 01:29:24;;;;;;;38.67;21.83;;;;;;;-142.57;100.00;56923.63;5048003;28;20044;-76
2024/01/01 01:31:50;;;;;;;39.97;22.92;;;;;;;-142.57;100.00;56947.88;5033092;28;20036;-76
2024/01/01 01:34:15;;;;;;;38.88;22.98;;;;;;;-142.57;100.00;56974.16;5071129;28;20044;-78
2024/01/01 01:36:41;;;;;;;41.20;24.50;;;;;;;-142.57;100.00;57044.91;5081398;28;20086;-77
2024/01/01 01:39:07;;;;;;;41.03;23.73;;;;;;;-142.57;100.00;57071.19;5062186;28;20086;-77
2024/01/01 01:41:32;;;;;;;37.80;23.70;;;;;;;-142.57;100.00;57038.84;5071640;28;20040;-77
2024/01/01 01:43:58;;;;;;;40.25;24.20;;;;;;;-142.57;100.00;57008.53;5065580;28;20032;-77
2024/01/01 01:46:24;;;;;;;40.22;25.27;;;;;;;-142.57;100.00;57024.69;5076712;28;20031;-77
2024/01/01 01:48:50;;;;;;;37.17;23.65;;;;;;;-142.57;100.00;56998.41;5035322;28;20032;-76
2024/01/01 01:51:16;;;;;;;36.75;23.70;;;;;;;-142.57;100.00;56958.00;4996435;28;20040;-76
2024/01/01 01:53:42;;;;;;;39.58;24.23;;;;;;;-142.57;100.00;56974.16;4977769;28;20436;-78
2024/01/01 01:56:08;;;;;;;40.92;23.83;;;;;;;-142.57;100.00;56889.28;5052253;28;20024;-77
2024/01/01 01:58:34;;;;;;;41.13;24.23;;;;;;;-142.57;100.00;56808.44;5066557;28;20017;-77
2024/01/01 02:01:00;;;;;;;39.17;23.50;;;;;;;-142.57;100.00;56812.47;5063337;28;20102;-79
2024/01/01 02:03:26;;;;;;;39.47;24.20;;;;;;;-142.57;100.00;56838.75;5052365;28;20174;-76
2024/01/01 02:05:54;;;;;;;37.65;23.23;;;;;;;-142.57;100.00;56774.06;5052191;28;20032;-76
2024/01/01 02:08:21;;;;;;;42.20;24.15;;;;;;;-142.57;100.00;56747.81;5073195;28;20040;-78
2024/01/01 02:10:46;;;;;;;44.40;25.95;;;;;;;-142.57;100.00;56814.50;5074679;28;20167;-77
2024/01/01 02:13:25;;;;;;;41.00;24.38;;;;;;;-142.57;100.00;56739.72;5081922;28;20152;-78
2024/01/01 02:15:51;;;;;;;42.72;25.95;;;;;;;-142.57;100.00;56727.59;5090077;28;20123;-78
2024/01/01 02:18:16;;;;;;;41.67;24.52;;;;;;;-142.57;100.00;56786.19;5002059;28;21591;-77
2024/01/01 02:20:42;;;;;;;44.67;25.80;;;;;;;-142.57;100.00;56749.81;5073648;28;20448;-75
2024/01/01 02:23:07;;;;;;;38.53;24.13;;;;;;;-142.57;100.00;56774.06;5070462;28;20122;-77
2024/01/01 02:25:33;;;;;;;39.60;25.60;;;;;;;-142.57;100.00;56784.19;5065950;28;20127;-78
2024/01/01 02:27:59;;;;;;;35.95;23.45;;;;;;;-142.57;100.00;56723.53;5077828;28;20036;-79
2024/01/01 02:30:24;;;;;;;35.00;22.90;;;;;;;-142.57;100.00;56774.06;5082128;28;20111;-77
2024/01/01 02:32:50;;;;;;;36.67;23.23;;;;;;;-142.57;100.00;56763.97;5083476;28;20113;-78
2024/01/01 02:35:16;;;;;;;35.90;23.98;;;;;;;-142.57;100.00;56743.75;5036042;28;20039;-75
2024/01/01 02:37:41;;;;;;;39.53;22.88;;;;;;;-142.57;100.00;56666.97;5052119;28;20028;-77
2024/01/01 02:40:08;;;;;;;40.05;24.30;;;;;;;-142.57;100.00;56675.03;5067611;28;20033;-78
2024/01/01 02:42:34;;;;;;;39.22;22.70;;;;;;;-142.57;100.00;56664.94;5077049;28;20032;-79
2024/01/01 02:45:00;;;;;;;39.97;24.65;;;;;;;-142.57;100.00;56729.59;5065987;28;20039;-77
2024/01/01 02:47:25;;;;;;;38.85;21.75;;;;;;;-142.57;100.00;56733.66;5076997;28;20044;-76
2024/01/01 02:49:51;;;;;;;32.70;20.80;;;;;;;-142.57;100.00;56711.41;5063797;28;20044;-77
2024/01/01 02:52:16;;;;;;;32.88;20.20;;;;;;;-142.57;100.00;56679.09;5073725;28;20032;-75
2024/01/01 02:54:42;;;;;;;33.05;20.98;;;;;;;-142.57;100.00;56602.28;5051979;28;20033;-76
2024/01/01 02:57:07;;;;;;;30.10;19.80;;;;;;;-142.57;100.00;56616.44;4997420;28;20028;-79
2024/01/01 02:59:36;;;;;;;30.98;19.67;;;;;;;-142.57;100.00;56582.06;5003188;28;20457;-77
2024/01/01 03:02:01;;;;;;;29.27;18.52;;;;;;;-142.57;100.00;56511.34;5065587;28;20072;-77
2024/01/01 03:04:31;;;;;;;34.42;19.80;;;;;;;-142.57;100.00;56505.28;5051133;28;20262;-77
2024/01/01 03:06:57;;;;;;;27.38;17.98;;;;;;;-142.57;100.00;56521.44;5058132;28;22220;-77
2024/01/01 03:09:23;;;;;;;30.77;18.23;;;;;;;-142.57;100.00;56513.38;5055039;28;20040;-76
2024/01/01 03:11:49;;;;;;;30.98;19.73;;;;;;;-142.57;100.00;56489.13;5070516;28;20163;-77
2024/01/01 03:14:14;;;;;;;28.98;18.88;;;;;;;-142.57;100.00;56509.31;5060002;28;20043;-81
2024/01/01 03:16:40;;;;;;;31.15;18.80;;;;;;;-142.57;100.00;56497.19;5080953;28;20477;-77
2024/01/01 03:19:05;;;;;;;34.00;18.90;;;;;;;-142.57;100.00;56592.19;5081942;28;20043;-76
2024/01/01 03:21:31;;;;;;;34.88;19.95;;;;;;;-142.57;100.00;56553.78;5077614;28;20111;-80
2024/01/01 03:23:56;;;;;;;32.05;20.20;;;;;;;-142.57;100.00;56517.41;5049663;28;20048;-85
2024/01/01 03:26:22;;;;;;;35.05;21.60;;;;;;;-142.57;100.00;56545.69;5072157;28;20489;-85
2024/01/01 03:28:48;;;;;;;48.30;27.38;;;;;;;-142.57;100.00;56529.53;5082454;28;20035;-82
2024/01/01 03:31:14;;;;;;;116.32;57.50;;;;;;;-142.57;100.00;56592.19;5093730;28;20058;-80
2024/01/01 03:33:39;;;;;;;46.08;26.33;;;;;;;-142.57;100.00;56626.53;5082449;28;20029;-80
2024/01/01 03:36:05;;;;;;;38.72;22.80;;;;;;;-142.57;100.00;56626.53;5072926;28;20033;-81
2024/01/01 03:38:31;;;;;;;41.45;24.23;;;;;;;-142.57;100.00;56675.03;5075664;28;20586;-83
2024/01/01 03:40:57;;;;;;;41.95;24.48;;;;;;;-142.57;100.00;56743.75;5079688;28;20054;-77
2024/01/01 03:43:23;;;;;;;50.05;25.55;;;;;;;-142.57;100.00;56800.34;5073690;28;20028;-78
2024/01/01 03:45:48;;;;;;;45.05;25.30;;;;;;;-142.57;100.00;56792.25;5082473;28;20047;-77
2024/01/01 03:48:14;;;;;;;52.15;27.25;;;;;;;-142.57;100.00;56804.38;5065566;28;20072;-77
2024/01/01 03:50:40;;;;;;;46.03;25.60;;;;;;;-142.57;100.00;56937.78;5027432;28;20040;-76
2024/01/01 03:53:05;;;;;;;43.10;25.15;;;;;;;-142.57;100.00;56852.91;5012563;28;20062;-77
2024/01/01 03:55:31;;;;;;;43.72;24.60;;;;;;;-142.57;100.00;56913.53;4998404;28;20481;-76
2024/01/01 03:57:56;;;;;;;45.60;25.15;;;;;;;-142.57;100.00;56905.44;5011588;28;20047;-78
2024/01/01 04:00:23;;;;;;;40.85;24.35;;;;;;;-142.57;100.00;56897.38;5066851;28;20075;-77
2024/01/01 04:02:49;;;;;;;38.83;22.88;;;;;;;-142.57;100.00;56751.84;5073898;28;20052;-78
2024/01/01 04:05:15;;;;;;;39.70;23.67;;;;;;;-142.57;100.00;56792.25;5089558;28;20028;-79
2024/01/01 04:07:41;;;;;;;36.53;21.27;;;;;;;-142.57;100.00;56658.88;5078784;28;20398;-76
2024/01/01 04:10:08;;;;;;;33.22;19.85;;;;;;;-142.57;100.00;56618.44;5077797;28;20024;-77
2024/01/01 04:12:34;;;;;;;29.80;18.33;;;;;;;-142.57;100.00;56571.97;5053206;28;21439;-77
2024/01/01 04:15:00;;;;;;;25.38;15.52;;;;;;;-142.57;100.00;56477.00;5015245;28;20060;-75
2024/01/01 04:17:26;;;;;;;29.80;15.93;;;;;;;-142.57;100.00;56418.38;4999861;28;20179;-76
2024/01/01 04:19:51;;;;;;;26.27;16.02;;;;;;;-142.57;100.00;56404.22;4994484;28;20401;-78
2024/01/01 04:22:18;;;;;;;19.80;13.23;;;;;;;-142.57;100.00;56357.75;4997852;28;20043;-78
2024/01/01 04:24:44;;;;;;;29.02;17.13;;;;;;;-142.57;100.00;56357.75;5003131;28;20046;-78
2024/01/01 04:27:09;;;;;;;35.58;21.15;;;;;;;-142.57;100.00;56311.28;4998321;28;20047;-77
2024/01/01 04:29:35;;;;;;;18.30;12.30;;;;;;;-142.57;100.00;56276.91;4998843;28;20025;-76
2024/01/01 04:32:02;;;;;;;17.80;12.10;;;;;;;-142.57;100.00;56305.22;5001120;28;20172;-78
2024/01/01 04:34:27;;;;;;;21.38;12.38;;;;;;;-142.57;100.00;56234.47;5000756;28;20043;-77
2024/01/01 04:36:53;;;;;;;23.23;13.32;;;;;;;-142.57;100.00;56194.06;4994299;28;21561;-76
2024/01/01 04:39:18;;;;;;;27.80;13.90;;;;;;;-142.57;100.00;56226.41;4997311;28;20035;-76
2024/01/01 04:41:44;;;;;;;25.02;14.00;;;;;;;-142.57;100.00;56222.34;5003976;28;20616;-77
2024/01/01 04:44:10;;;;;;;21.10;13.35;;;;;;;-142.57;100.00;56228.41;4999923;28;21668;-78
2024/01/01 04:46:36;;;;;;;22.88;13.75;;;;;;;-142.57;100.00;56222.34;4998504;28;22065;-79
2024/01/01 04:49:02;;;;;;;25.33;14.27;;;;;;;-142.57;100.00;56250.66;5001492;28;20041;-77
2024/01/01 04:51:27;;;;;;;25.25;14.32;;;;;;;-142.57;100.00;56274.91;5000584;28;20138;-77
2024/01/01 04:53:52;;;;;;;23.73;14.70;;;;;;;-142.57;100.00;56287.03;4997263;28;20070;-77
2024/01/01 04:56:21;;;;;;;24.15;14.68;;;;;;;-142.57;100.00;56260.75;4999181;28;20476;-78
2024/01/01 04:58:46;;;;;;;24.67;14.13;;;;;;;-142.57;100.00;56278.94;5003267;28;20040;-77
2024/01/01 05:01:12;;;;;;;21.25;13.50;;;;;;;-142.57;100.00;56260.75;4999393;28;20439;-78
2024/01/01 05:03:37;;;;;;;25.38;14.38;;;;;;;-142.57;100.00;56264.78;5000470;28;20203;-78
2024/01/01 05:06:03;;;;;;;21.23;13.68;;;;;;;-142.57;100.00;56242.56;5000792;28;20047;-78
2024/01/01 05:08:28;;;;;;;24.63;14.02;;;;;;;-142.57;100.00;56214.28;4998972;28;20604;-78
2024/01/01 05:10:54;;;;;;;23.98;13.75;;;;;;;-142.57;100.00;56228.41;4994505;28;20047;-75
2024/01/01 05:13:19;;;;;;;20.58;12.88;;;;;;;-142.57;100.00;56234.47;5003667;28;20039;-78
2024/01/01 05:15:45;;;;;;;20.48;12.70;;;;;;;-142.57;100.00;56208.22;4998458;28;22534;-79
2024/01/01 05:18:10;;;;;;;22.45;13.38;;;;;;;-142.57;100.00;56206.19;5034511;28;20388;-77
2024/01/01 05:20:36;;;;;;;21.20;12.82;;;;;;;-142.57;100.00;56236.50;5077315;28;20085;-77
2024/01/01 05:23:01;;;;;;;21.92;13.18;;;;;;;-142.57;100.00;56226.41;5079843;28;20489;-76
2024/01/01 05:25:27;;;;;;;24.25;13.45;;;;;;;-142.57;100.00;56190.03;5074318;28;20032;-76
2024/01/01 05:27:53;;;;;;;21.20;13.10;;;;;;;-142.57;100.00;56206.19;5077363;28;20146;-77
2024/01/01 05:30:18;;;;;;;22.65;13.80;;;;;;;-142.57;100.00;56210.22;5066415;28;20021;-77
2024/01/01 05:32:44;;;;;;;20.95;12.25;;;;;;;-142.57;100.00;56161.72;5077574;28;20032;-79
2024/01/01 05:35:09;;;;;;;23.42;12.05;;;;;;;-142.57;100.00;56153.66;5086523;28;20495;-77
2024/01/01 05:37:35;;;;;;;21.30;12.65;;;;;;;-142.57;100.00;56133.44;5067328;28;20101;-78
2024/01/01 05:40:00;;;;;;;20.95;11.68;;;;;;;-142.57;100.00;56157.69;5081266;28;20064;-77
2024/01/01 05:42:31;;;;;;;21.20;11.88;;;;;;;-142.57;100.00;56173.84;5070321;28;20085;-76
2024/01/01 05:44:57;;;;;;;18.55;10.75;;;;;;;-142.57;100.00;56179.91;5039539;28;20050;-76
2024/01/01 05:47:22;;;;;;;17.52;10.30;;;;;;;-142.57;100.00;56228.41;5000505;28;20032;-76
2024/01/01 05:49:48;;;;;;;19.85;11.75;;;;;;;-142.57;100.00;56196.09;5000132;28;20036;-78
2024/01/01 05:52:14;;;;;;;19.63;12.30;;;;;;;-142.57;100.00;56185.97;4997963;28;20035;-79
2024/01/01 05:54:39;;;;;;;22.23;12.18;;;;;;;-142.57;100.00;56153.66;5041900;28;20032;-80
2024/01/01 05:57:05;;;;;;;19.75;11.40;;;;;;;-142.57;100.00;56163.75;5070612;28;20038;-78
2024/01/01 05:59:30;;;;;;;23.77;11.60;;;;;;;-142.57;100.00;56131.44;5076678;28;20039;-78
2024/01/01 06:01:56;;;;;;;18.70;11.52;;;;;;;-142.57;100.00;56153.66;5077550;28;20044;-76
2024/01/01 06:04:21;;;;;;;17.08;10.73;;;;;;;-142.57;100.00;56157.69;5010124;28;21397;-79
2024/01/01 06:06:47;;;;;;;19.42;11.35;;;;;;;-142.57;100.00;56111.22;5000021;28;20029;-77
2024/01/01 06:09:13;;;;;;;17.70;10.70;;;;;;;-142.57;100.00;56129.41;5003636;28;20028;-77
2024/01/01 06:11:38;;;;;;;22.10;11.88;;;;;;;-142.57;100.00;56171.84;5002446;28;20580;-76
2024/01/01 06:14:07;;;;;;;20.88;11.60;;;;;;;-142.57;100.00;56202.16;5050515;28;20086;-77
2024/01/01 06:16:33;;;;;;;21.65;13.23;;;;;;;-142.57;100.00;56198.09;5080061;28;20025;-79
2024/01/01 06:18:58;;;;;;;22.77;12.50;;;;;;;-142.57;100.00;56185.97;5059884;28;20041;-77
2024/01/01 06:21:24;;;;;;;22.13;11.40;;;;;;;-142.57;100.00;56242.56;5073044;28;20110;-77
2024/01/01 06:23:49;;;;;;;19.75;11.45;;;;;;;-142.57;100.00;56202.16;5072086;28;20032;-79
2024/01/01 06:26:15;;;;;;;21.52;11.68;;;;;;;-142.57;100.00;56171.84;5087461;28;20039;-77
2024/01/01 06:28:40;;;;;;;19.48;11.15;;;;;;;-142.57;100.00;56202.16;5072657;28;20071;-78
2024/01/01 06:31:06;;;;;;;19.75;11.40;;;;;;;-142.57;100.00;56181.94;5071396;28;20043;-78
2024/01/01 06:33:31;;;;;;;21.63;11.18;;;;;;;-142.57;100.00;56177.91;5078446;28;20036;-78
2024/01/01 06:35:57;;;;;;;20.63;11.45;;;;;;;-142.57;100.00;56208.22;5002028;28;20032;-76
2024/01/01 06:38:22;;;;;;;20.60;11.15;;;;;;;-142.57;100.00;56202.16;4999254;28;20107;-79
2024/01/01 06:40:48;;;;;;;19.95;11.57;;;;;;;-142.57;100.00;56177.91;5003038;28;20098;-77
2024/01/01 06:43:14;;;;;;;23.65;13.68;;;;;;;-142.57;100.00;56226.41;5003607;28;20609;-77
2024/01/01 06:45:39;;;;;;;27.30;14.40;;;;;;;-142.57;100.00;56228.41;5080850;28;20043;-79
2024/01/01 06:48:05;;;;;;;29.42;16.08;;;;;;;-142.57;100.00;56270.84;5085068;28;20455;-76
2024/01/01 06:50:31;;;;;;;29.75;15.27;;;;;;;-142.57;100.00;56287.03;5068700;28;20037;-77
2024/01/01 06:52:56;;;;;;;28.10;16.52;;;;;;;-142.57;100.00;56335.53;5074655;28;20119;-80
2024/01/01 06:55:22;;;;;;;26.42;15.27;;;;;;;-142.57;100.00;56268.84;5078738;28;20036;-77
2024/01/01 06:57:48;;;;;;;24.40;13.40;;;;;;;-142.57;100.00;56307.22;5080857;28;20618;-77
2024/01/01 07:00:15;;;;;;;24.67;13.13;;;;;;;-142.57;100.00;56299.16;5025572;28;20028;-77
2024/01/01 07:02:41;;;;;;;23.52;13.75;;;;;;;-142.57;100.00;56250.66;5004943;28;20051;-78
2024/01/01 07:05:07;;;;;;;24.60;13.00;;;;;;;-142.57;100.00;56230.44;4999939;28;20036;-78
2024/01/01 07:07:33;;;;;;;20.80;12.68;;;;;;;-142.57;100.00;56206.19;5005020;28;20119;-76
2024/01/01 07:10:00;;;;;;;26.20;13.48;;;;;;;-142.57;100.00;56226.41;5068153;28;20036;-79
2024/01/01 07:12:28;;;;;;;25.20;13.98;;;;;;;-142.57;100.00;56246.59;5083287;28;20032;-75
2024/01/01 07:14:54;;;;;;;23.88;13.68;;;;;;;-142.57;100.00;56220.34;5030570;28;20039;-77
2024/01/01 07:17:20;;;;;;;26.08;15.23;;;;;;;-142.57;100.00;56177.91;5063148;28;20039;-78
2024/01/01 07:19:47;;;;;;;26.02;15.00;;;;;;;-142.57;100.00;56222.34;5004791;28;20040;-79
2024/01/01 07:22:13;;;;;;;28.15;15.60;;;;;;;-142.57;100.00;56232.47;4997168;28;20536;-77
2024/01/01 07:24:39;;;;;;;24.42;14.25;;;;;;;-142.57;100.00;56254.69;4999363;28;20036;-78
2024/01/01 07:27:05;;;;;;;29.05;15.60;;;;;;;-142.57;100.00;56222.34;5024621;28;20024;-77
2024/01/01 07:29:31;;;;;;;24.33;14.60;;;;;;;-142.57;100.00;56232.47;5075100;28;20063;-78
2024/01/01 07:31:57;;;;;;;26.30;14.27;;;;;;;-142.57;100.00;56232.47;5024767;28;20082;-78
2024/01/01 07:34:24;;;;;;;25.17;14.77;;;;;;;-142.57;100.00;56222.34;5006791;28;20512;-77
2024/01/01 07:36:50;;;;;;;23.75;12.48;;;;;;;-142.57;100.00;56198.09;5003756;28;20620;-77
2024/01/01 07:39:19;;;;;;;18.30;11.65;;;;;;;-142.57;100.00;56167.78;4998077;28;20716;-77
2024/01/01 07:41:46;;;;;;;22.50;11.20;;;;;;;-142.57;100.00;56167.78;5018087;28;20036;-77
2024/01/01 07:44:11;;;;;;;24.33;11.98;;;;;;;-142.57;100.00;56222.34;5086279;28;20032;-79
2024/01/01 07:46:37;;;;;;;22.00;12.30;;;;;;;-142.57;100.00;56250.66;5022281;28;20127;-79
2024/01/01 07:49:05;;;;;;;20.63;11.50;;;;;;;-142.57;100.00;56258.72;5005030;28;21812;-78
2024/01/01 07:51:31;;;;;;;20.35;12.05;;;;;;;-142.57;100.00;56228.41;5000686;28;20039;-79
2024/01/01 07:53:57;;;;;;;20.45;10.75;;;;;;;-142.57;100.00;56228.41;5001126;28;20033;-78
2024/01/01 07:56:22;;;;;;;25.33;11.90;;;;;;;-142.57;100.00;56246.59;5061494;28;20508;-79
2024/01/01 07:58:49;;;;;;;22.25;12.07;;;;;;;-142.57;100.00;56252.66;5078706;28;20050;-81
2024/01/01 08:01:18;;;;;;;21.50;11.55;;;;;;;-142.57;100.00;56262.78;5086320;28;20051;-77
2024/01/01 08:03:44;;;;;;;20.10;11.80;;;;;;;-142.57;100.00;56214.28;5001193;28;20047;-79
2024/01/01 08:06:09;;;;;;;21.60;11.30;;;;;;;-142.57;100.00;56208.22;4999807;28;20024;-81
2024/01/01 08:08:35;;;;;;;20.13;11.32;;;;;;;-142.57;100.00;56250.66;5005067;28;20504;-80
2024/01/01 08:11:00;;;;;;;20.77;11.57;;;;;;;-142.57;100.00;56260.75;5004823;28;20056;-80
2024/01/01 08:13:27;;;;;;;20.23;10.70;;;;;;;-142.57;100.00;56282.97;5079171;28;20108;-79
2024/01/01 08:15:53;;;;;;;21.73;11.40;;;;;;;-142.57;100.00;56291.06;5073703;28;20089;-78
2024/01/01 08:18:18;;;;;;;18.38;11.13;;;;;;;-142.57;100.00;56278.94;5007621;28;20036;-82
2024/01/01 08:20:44;;;;;;;19.90;10.60;;;;;;;-142.57;100.00;56274.91;5005156;28;21952;-80
2024/01/01 08:23:10;;;;;;;17.77;10.77;;;;;;;-142.57;100.00;56262.78;5004538;28;21571;-75
2024/01/01 08:25:36;;;;;;;20.88;11.48;;;;;;;-142.57;100.00;56222.34;5010141;28;20046;-79
2024/01/01 08:28:02;;;;;;;19.30;11.13;;;;;;;-142.57;100.00;56230.44;5074061;28;20056;-80
2024/01/01 08:30:27;;;;;;;27.02;11.80;;;;;;;-142.57;100.00;56242.56;5035062;28;20579;-79
2024/01/01 08:32:53;;;;;;;17.80;10.88;;;;;;;-142.57;100.00;56258.72;5005051;28;20068;-81
2024/01/01 08:35:19;;;;;;;21.52;11.82;;;;;;;-142.57;100.00;56289.03;5003152;28;20028;-80
2024/01/01 08:37:45;;;;;;;18.10;11.35;;;;;;;-142.57;100.00;56274.91;5006031;28;21794;-80
2024/01/01 08:40:11;;;;;;;23.33;12.05;;;;;;;-142.57;100.00;56287.03;4996019;28;20543;-78
2024/01/01 08:42:37;;;;;;;18.02;11.57;;;;;;;-142.57;100.00;56285.00;4999521;28;20033;-77
2024/01/01 08:45:06;;;;;;;20.10;12.70;;;;;;;-142.57;100.00;56258.72;5002981;28;20492;-78
2024/01/01 08:47:31;;;;;;;20.10;13.27;;;;;;;-142.57;100.00;56307.22;4999526;28;21457;-79
2024/01/01 08:49:57;;;;;;;22.23;13.23;;;;;;;-142.57;100.00;56278.94;5004527;28;20063;-79
2024/01/01 08:52:23;;;;;;;22.88;12.93;;;;;;;-142.57;100.00;56333.50;5003715;28;20059;-79
2024/01/01 08:54:48;;;;;;;21.70;12.13;;;;;;;-142.57;100.00;56274.91;4999389;28;21522;-79
2024/01/01 08:57:15;;;;;;;25.10;15.07;;;;;;;-142.57;100.00;56230.44;5037732;28;20028;-81
2024/01/01 08:59:41;;;;;;;27.48;15.35;;;;;;;-142.57;100.00;56242.56;5076569;28;20039;-81
2024/01/01 09:02:07;;;;;;;36.35;20.88;;;;;;;-142.57;100.00;56250.66;5082347;28;20040;-79
2024/01/01 09:04:33;;;;;;;28.10;16.58;;;;;;;-142.57;100.00;56319.34;5002686;28;20032;-80
2024/01/01 09:07:04;;;;;;;25.25;14.57;;;;;;;-142.57;100.00;56280.97;4999369;28;20036;-79
2024/01/01 09:09:30;;;;;;;25.80;15.57;;;;;;;-142.57;100.00;56355.72;5001786;28;20435;-81
2024/01/01 09:11:56;;;;;;;29.45;16.17;;;;;;;-142.57;100.00;56331.47;5007896;28;20036;-79
2024/01/01 09:14:22;;;;;;;30.33;16.92;;;;;;;-142.57;100.00;56392.09;5028866;28;20028;-79
2024/01/01 09:16:48;;;;;;;31.42;17.73;;;;;;;-142.57;100.00;56390.09;5000596;28;20040;-78
2024/01/01 09:19:17;;;;;;;28.23;17.48;;;;;;;-142.57;100.00;56424.44;4996936;28;20697;-82
2024/01/01 09:21:46;;;;;;;28.10;16.38;;;;;;;-142.57;100.00;56412.31;4998819;28;20124;-79
2024/01/01 09:24:11;;;;;;;24.67;15.52;;;;;;;-142.57;100.00;56420.41;5031573;28;20049;-80
2024/01/01 09:26:39;;;;;;;26.55;14.77;;;;;;;-142.57;100.00;56456.78;5084749;28;20040;-81
2024/01/01 09:29:05;;;;;;;24.60;15.02;;;;;;;-142.57;100.00;56450.72;5046770;28;20435;-79
2024/01/01 09:31:33;;;;;;;56.42;32.30;;;;;;;-142.57;100.00;56464.84;5003491;28;20023;-81
2024/01/01 09:34:01;;;;;;;38.80;23.58;;;;;;;-142.57;100.00;56515.38;4999210;28;21890;-78
2024/01/01 09:36:27;;;;;;;31.00;16.70;;;;;;;-142.57;100.00;56477.00;4997524;28;20127;-84
2024/01/01 09:38:53;;;;;;;24.98;15.23;;;;;;;-142.57;100.00;56489.13;5005469;28;20039;-81
2024/01/01 09:41:19;;;;;;;25.75;14.57;;;;;;;-142.57;100.00;56549.75;4998260;28;21466;-80
2024/01/01 09:43:47;;;;;;;30.02;16.83;;;;;;;-142.57;100.00;56501.25;5000388;28;20043;-81
2024/01/01 09:46:14;;;;;;;30.23;17.92;;;;;;;-142.57;100.00;56468.91;5005023;28;20040;-84
2024/01/01 09:48:41;;;;;;;33.72;18.67;;;;;;;-142.57;100.00;56432.53;5007901;28;20084;-85
2024/01/01 09:51:06;;;;;;;40.08;20.13;;;;;;;-142.57;100.00;56448.69;5030622;28;20032;-85
2024/01/01 09:53:32;;;;;;;38.28;21.25;;;;;;;-142.57;100.00;56418.38;5029008;28;20050;-83
2024/01/01 09:55:58;;;;;;;36.20;20.00;;;;;;;-142.57;100.00;56404.22;5031397;28;20039;-86
2024/01/01 09:58:23;;;;;;;40.22;22.08;;;;;;;-142.57;100.00;56470.94;5042326;28;20044;-83
2024/01/01 10:00:49;;;;;;;42.08;22.20;;;;;;;-142.57;100.00;56472.94;5102273;28;20044;-86
2024/01/01 10:03:15;;;;;;;48.47;25.15;;;;;;;-142.57;100.00;56464.84;5094899;28;20047;-80
2024/01/01 10:05:41;;;;;;;46.97;25.88;;;;;;;-142.57;100.00;56509.31;5091440;28;20047;-85
2024/01/01 10:08:10;;;;;;;53.47;26.60;;;;;;;-142.57;100.00;56495.19;5104996;28;20009;-86
2024/01/01 10:10:40;;;;;;;47.25;26.38;;;;;;;-142.57;100.00;56474.97;5109118;28;20032;-86
2024/01/01 10:13:12;;;;;;;48.22;26.25;;;;;;;-142.57;100.00;56549.75;5084890;28;20036;-85
2024/01/01 10:15:39;;;;;;;49.13;27.67;;;;;;;-142.57;100.00;56525.50;5092301;28;20040;-81
2024/01/01 10:18:09;;;;;;;49.53;26.88;;;;;;;-142.57;100.00;56551.75;5015369;28;20036;-84
2024/01/01 10:20:34;;;;;;;46.85;25.60;;;;;;;-142.57;100.00;56561.88;5040137;28;20177;-85
2024/01/01 10:23:21;;;;;;;48.28;26.15;;;;;;;-142.57;100.00;56584.09;5016916;28;20055;-82
2024/01/01 10:26:03;;;;;;;53.05;26.00;;;;;;;-142.57;100.00;56525.50;5036524;28;20468;-81
2024/01/01 10:28:30;;;;;;;49.37;25.90;;;;;;;-142.57;100.00;56547.72;5051476;28;20037;-82
2024/01/01 10:30:56;;;;;;;47.38;24.75;;;;;;;-142.57;100.00;56574.00;5020530;28;20292;-83
2024/01/01 10:33:23;;;;;;;47.35;25.58;;;;;;;-142.57;100.00;56557.81;5008460;28;22196;-81
2024/01/01 10:35:49;;;;;;;43.25;23.70;;;;;;;-142.57;100.00;56569.94;5041911;28;20047;-82
2024/01/01 10:38:17;;;;;;;45.95;23.80;;;;;;;-142.57;100.00;56541.66;5081439;28;20029;-80
2024/01/01 10:40:44;;;;;;;44.25;23.77;;;;;;;-142.57;100.00;56614.41;5077194;28;20041;-81
2024/01/01 10:43:09;;;;;;;43.00;22.55;;;;;;;-142.57;100.00;56622.50;5085696;28;20058;-84
2024/01/01 10:45:35;;;;;;;39.30;22.58;;;;;;;-142.57;100.00;56628.56;5034951;28;20028;-81
2024/01/01 10:48:05;;;;;;;40.40;22.88;;;;;;;-142.57;100.00;56618.44;5091009;28;20028;-78
2024/01/01 10:50:35;;;;;;;38.55;20.30;;;;;;;-142.57;100.00;56642.72;5073894;28;21679;-81